Time;durP1;ratioP1;P1;durP2;ratioP2;P2;SDS_P1;SDS_P2;PMS_P1;PMS_P2;Temp;Humidity;BMP_temperature;BMP_pressure;BME280_temperature;BME280_humidity;BME280_pressure;Samples;Min_cycle;Max_cycle;Signal;HPM_P1;HPM_P2
2021/06/04 00:01:16;;;;;;;3.10;2.42;;;;;;;19.06;66.26;97124.44;5054063;28;20052;-77
2021/06/04 00:03:44;;;;;;;2.88;1.90;;;;;;;19.04;66.16;97131.81;5053761;28;20057;-78
2021/06/04 00:06:13;;;;;;;3.40;2.40;;;;;;;19.04;66.54;97131.00;5054131;28;20064;-78
2021/06/04 00:08:41;;;;;;;2.75;2.55;;;;;;;19.03;66.35;97129.41;5054183;28;20056;-78
2021/06/04 00:11:12;;;;;;;3.15;2.55;;;;;;;19.03;66.67;97134.69;5054269;28;20057;-78
2021/06/04 00:13:42;;;;;;;4.18;2.65;;;;;;;19.01;66.59;97128.81;5053842;28;20052;-78
2021/06/04 00:16:14;;;;;;;7.57;3.05;;;;;;;19.00;66.88;97129.81;5053785;28;20041;-77
2021/06/04 00:18:43;;;;;;;4.63;3.13;;;;;;;18.99;66.75;97120.28;5054022;28;20045;-78
2021/06/04 00:21:13;;;;;;;3.80;2.85;;;;;;;18.99;67.16;97129.03;5054196;28;20053;-78
2021/06/04 00:23:41;;;;;;;3.00;2.70;;;;;;;18.97;67.14;97130.28;5054062;28;20111;-77
2021/06/04 00:26:09;;;;;;;3.33;2.63;;;;;;;18.94;67.39;97126.25;5053856;28;20049;-78
2021/06/04 00:28:38;;;;;;;4.63;2.78;;;;;;;18.93;67.25;97125.44;5054104;28;20045;-78
2021/06/04 00:31:06;;;;;;;3.70;2.70;;;;;;;18.91;67.46;97122.22;5053974;28;20045;-78
2021/06/04 00:33:35;;;;;;;3.72;3.00;;;;;;;18.90;67.35;97117.16;5053438;28;20053;-78
2021/06/04 00:36:04;;;;;;;3.42;2.70;;;;;;;18.86;67.46;97119.41;5053709;28;20048;-77
2021/06/04 00:38:31;;;;;;;3.63;2.97;;;;;;;18.84;67.23;97115.38;5053534;28;20052;-78
2021/06/04 00:41:03;;;;;;;3.25;2.95;;;;;;;18.83;67.63;97113.78;5053567;28;20076;-78
2021/06/04 00:43:31;;;;;;;5.78;3.15;;;;;;;18.83;67.15;97113.78;5053115;28;20550;-78
2021/06/04 00:46:00;;;;;;;4.25;2.55;;;;;;;18.84;68.52;97116.19;5053478;28;20060;-77
2021/06/04 00:48:28;;;;;;;3.92;3.08;;;;;;;18.85;67.91;97112.53;5053398;28;20045;-78
2021/06/04 00:51:01;;;;;;;4.75;2.60;;;;;;;18.83;67.58;97116.44;5053756;28;20056;-77
2021/06/04 00:53:29;;;;;;;7.13;2.88;;;;;;;18.76;67.62;97097.97;5052826;28;20053;-77
2021/06/04 00:55:57;;;;;;;4.38;3.25;;;;;;;18.76;67.67;97107.72;5053226;28;20094;-78
2021/06/04 00:58:28;;;;;;;5.05;3.38;;;;;;;18.72;67.78;97102.09;5052977;28;20049;-77
2021/06/04 01:00:58;;;;;;;4.32;3.10;;;;;;;18.70;67.79;97104.94;5053222;28;20080;-77
2021/06/04 01:03:29;;;;;;;3.63;2.92;;;;;;;18.67;68.37;97109.84;5052923;28;20052;-77
2021/06/04 01:06:07;;;;;;;3.92;3.40;;;;;;;18.69;69.39;97113.06;5053104;28;20045;-78
2021/06/04 01:09:09;;;;;;;4.60;3.40;;;;;;;18.70;69.11;97114.72;5052188;28;20052;-77
2021/06/04 01:11:46;;;;;;;4.75;3.33;;;;;;;18.67;68.27;97123.06;5052968;28;20232;-78
2021/06/04 01:14:22;;;;;;;4.00;3.13;;;;;;;18.67;69.25;97120.41;5052586;28;20449;-77
2021/06/04 01:16:58;;;;;;;4.90;2.78;;;;;;;18.65;68.32;97119.81;5053008;28;20059;-77
2021/06/04 01:19:42;;;;;;;2.92;2.50;;;;;;;18.65;69.98;97118.00;5072028;23;20041;-77
2021/06/04 01:22:18;;;;;;;2.95;2.63;;;;;;;18.65;68.60;97117.19;5000669;28;20058;-76
2021/06/04 01:25:16;;;;;;;4.25;2.80;;;;;;;18.65;68.34;97123.31;5000703;28;20062;-78
2021/06/04 01:27:48;;;;;;;3.42;2.70;;;;;;;18.67;68.39;97112.50;5002371;28;20046;-77
2021/06/04 01:30:22;;;;;;;4.22;2.85;;;;;;;18.69;70.24;97119.19;5001595;28;20046;-79
2021/06/04 01:32:51;;;;;;;4.45;2.92;;;;;;;18.69;69.09;97123.66;5001855;28;20054;-77
2021/06/04 01:35:24;;;;;;;4.07;2.60;;;;;;;18.66;68.07;97116.16;5001236;28;20046;-76
2021/06/04 01:37:52;;;;;;;3.50;2.80;;;;;;;18.62;67.51;97122.91;5002439;28;20053;-77
2021/06/04 01:40:23;;;;;;;5.18;2.90;;;;;;;18.57;67.53;97120.13;5001596;28;20050;-78
2021/06/04 01:42:52;;;;;;;4.40;2.80;;;;;;;18.57;67.54;97120.13;5001561;28;20050;-78
2021/06/04 01:45:26;;;;;;;5.13;3.03;;;;;;;18.53;67.66;97117.91;5000755;28;20145;-79
2021/06/04 01:47:59;;;;;;;5.45;3.10;;;;;;;18.50;67.69;97123.66;5004311;28;20051;-78
2021/06/04 01:50:32;;;;;;;3.58;2.78;;;;;;;18.47;67.59;97121.44;5002798;28;20053;-77
2021/06/04 01:53:07;;;;;;;4.93;3.08;;;;;;;18.44;67.91;97116.59;5016275;28;20054;-80
2021/06/04 01:55:37;;;;;;;4.80;3.20;;;;;;;18.41;67.78;97117.06;5016983;28;20057;-79
2021/06/04 01:58:09;;;;;;;4.28;3.20;;;;;;;18.39;67.64;97113.81;4999857;28;20050;-82
2021/06/04 02:00:41;;;;;;;3.47;2.80;;;;;;;18.36;67.76;97113.44;4997988;28;20050;-83
2021/06/04 02:03:10;;;;;;;4.47;3.43;;;;;;;18.31;67.94;97117.53;4997845;28;20046;-83
2021/06/04 02:05:39;;;;;;;6.78;3.63;;;;;;;18.29;67.74;97113.50;4997092;28;20118;-82
2021/06/04 02:08:10;;;;;;;4.35;2.85;;;;;;;18.25;67.71;97113.13;4997130;28;20046;-83
2021/06/04 02:10:42;;;;;;;4.00;2.65;;;;;;;18.21;67.52;97111.13;4997302;28;20059;-82
2021/06/04 02:13:13;;;;;;;3.55;3.05;;;;;;;18.18;67.62;97112.38;4997363;28;20428;-80
2021/06/04 02:15:44;;;;;;;4.82;2.55;;;;;;;18.16;68.09;97108.34;4998387;28;20058;-80
2021/06/04 02:18:20;;;;;;;3.03;2.40;;;;;;;18.11;67.71;97107.16;4998031;28;20073;-80
2021/06/04 02:20:51;;;;;;;6.55;2.60;;;;;;;18.10;67.96;97110.84;4999477;28;20077;-83
2021/06/04 02:23:24;;;;;;;2.70;2.50;;;;;;;18.09;67.85;97114.50;4998780;28;20101;-80
2021/06/04 02:25:59;;;;;;;6.15;2.80;;;;;;;18.08;67.58;97112.88;4998759;28;20054;-79
2021/06/04 02:28:31;;;;;;;6.68;3.17;;;;;;;18.06;67.61;97106.19;4999815;28;20386;-77
2021/06/04 02:31:05;;;;;;;3.22;2.72;;;;;;;18.04;67.80;97114.34;4999724;28;20058;-79
2021/06/04 02:33:38;;;;;;;3.97;3.13;;;;;;;18.00;67.55;97110.50;4999673;28;20050;-78
2021/06/04 02:36:09;;;;;;;3.30;3.00;;;;;;;17.96;67.84;97113.81;5000295;28;20050;-78
2021/06/04 02:38:40;;;;;;;2.85;2.65;;;;;;;17.95;67.65;97120.09;5001388;28;20046;-82
2021/06/04 02:41:12;;;;;;;3.90;2.42;;;;;;;17.91;67.77;97117.09;4999887;28;20050;-78
2021/06/04 02:43:44;;;;;;;4.38;2.97;;;;;;;17.91;67.87;97117.09;5000350;28;20050;-77
2021/06/04 02:46:16;;;;;;;5.57;2.67;;;;;;;17.88;67.96;97117.50;5000168;28;20061;-79
2021/06/04 02:48:44;;;;;;;3.08;2.40;;;;;;;17.85;67.58;97117.94;5000393;28;20051;-77
2021/06/04 02:51:16;;;;;;;3.25;2.90;;;;;;;17.82;67.96;97115.72;5000934;28;20065;-77
2021/06/04 02:53:50;;;;;;;4.43;2.75;;;;;;;17.78;67.88;97117.16;5000893;28;20085;-78
2021/06/04 02:56:23;;;;;;;3.20;2.63;;;;;;;17.76;68.08;97121.84;5002537;28;20061;-80
2021/06/04 02:58:54;;;;;;;4.50;3.22;;;;;;;17.73;67.89;97111.72;5002647;28;20057;-79
2021/06/04 03:01:22;;;;;;;4.47;2.85;;;;;;;17.71;68.45;97118.03;5001564;28;20047;-78
2021/06/04 03:03:51;;;;;;;3.67;3.10;;;;;;;17.70;68.27;97111.13;5001297;28;20054;-78
2021/06/04 03:06:22;;;;;;;3.05;2.72;;;;;;;17.67;68.04;97114.19;5001830;28;20413;-79
2021/06/04 03:08:51;;;;;;;5.18;2.90;;;;;;;17.67;68.21;97116.03;5002598;28;20054;-77
2021/06/04 03:11:20;;;;;;;4.18;2.90;;;;;;;17.64;68.17;97113.81;5000382;28;20487;-77
2021/06/04 03:13:48;;;;;;;5.05;3.53;;;;;;;17.62;68.40;97111.41;5000857;28;20050;-78
2021/06/04 03:16:19;;;;;;;3.85;2.80;;;;;;;17.60;68.29;97112.59;5000846;28;20456;-79
2021/06/04 03:18:50;;;;;;;5.90;3.00;;;;;;;17.58;68.43;97114.66;5001389;28;20042;-78
2021/06/04 03:21:25;;;;;;;5.38;2.97;;;;;;;17.57;68.23;97118.31;5000788;28;20057;-78
2021/06/04 03:23:52;;;;;;;7.20;2.97;;;;;;;17.57;68.25;97113.03;5002517;28;20500;-77
2021/06/04 03:26:22;;;;;;;4.28;2.63;;;;;;;17.57;68.24;97113.84;5002177;28;20050;-78
2021/06/04 03:28:52;;;;;;;4.22;3.03;;;;;;;17.55;68.59;97107.97;5002729;28;20074;-77
2021/06/04 03:31:24;;;;;;;3.03;2.70;;;;;;;17.57;69.76;97121.75;5001988;28;20050;-77
2021/06/04 03:33:52;;;;;;;;;;;;;;;17.57;68.71;97111.22;5005805;28;20124;-79
2021/06/04 03:36:24;;;;;;;3.33;2.88;;;;;;;17.54;68.46;97119.56;5004260;28;20388;-78
2021/06/04 03:38:51;;;;;;;4.78;3.40;;;;;;;17.53;68.37;97117.13;5003616;28;20057;-78
2021/06/04 03:41:21;;;;;;;6.03;3.20;;;;;;;17.52;68.78;97123.44;5004641;28;20054;-76
2021/06/04 03:43:49;;;;;;;3.90;3.55;;;;;;;17.52;69.57;97123.44;5004510;28;20054;-78
2021/06/04 03:46:16;;;;;;;4.45;3.53;;;;;;;17.53;69.37;97119.78;5005419;28;20050;-79
2021/06/04 03:48:45;;;;;;;4.05;3.00;;;;;;;17.55;70.18;97121.16;5006246;28;20436;-80
2021/06/04 03:51:15;;;;;;;4.45;2.97;;;;;;;17.54;68.46;97122.19;5006346;28;20053;-79
2021/06/04 03:53:43;;;;;;;3.50;2.90;;;;;;;17.53;68.39;97125.03;5006884;28;20046;-80
2021/06/04 03:56:13;;;;;;;5.28;3.40;;;;;;;17.50;68.13;97126.28;5005369;28;20069;-76
2021/06/04 03:58:42;;;;;;;4.97;3.17;;;;;;;17.46;68.28;97125.09;5005168;28;20058;-78
2021/06/04 04:01:12;;;;;;;3.92;3.10;;;;;;;17.44;68.72;97119.22;5004266;28;20042;-77
2021/06/04 04:03:40;;;;;;;3.92;3.63;;;;;;;17.41;68.42;97124.94;5004407;28;20057;-78
2021/06/04 04:06:09;;;;;;;4.63;3.20;;;;;;;17.37;68.16;97126.38;5004220;28;20058;-77
2021/06/04 04:08:36;;;;;;;3.45;2.60;;;;;;;17.32;68.31;97129.63;5004485;28;20057;-78
2021/06/04 04:11:04;;;;;;;3.15;2.95;;;;;;;17.28;68.08;97137.16;5004505;28;20046;-79
2021/06/04 04:13:32;;;;;;;3.75;3.03;;;;;;;17.26;68.66;97139.19;5004692;28;20471;-78
2021/06/04 04:16:00;;;;;;;5.30;3.13;;;;;;;17.27;68.24;97143.47;5004521;28;20057;-77
2021/06/04 04:18:28;;;;;;;6.63;4.97;;;;;;;17.30;68.54;97142.22;5004584;28;20058;-77
2021/06/04 04:20:57;;;;;;;8.07;5.47;;;;;;;17.30;68.69;97137.75;5004243;28;20100;-78
2021/06/04 04:26:26;;;;;;;5.18;3.20;;;;;;;17.35;69.16;97144.22;5004676;28;20445;-78
2021/06/04 04:28:54;;;;;;;4.28;3.40;;;;;;;17.37;72.01;97145.63;5003918;28;20050;-77
2021/06/04 04:31:26;;;;;;;3.53;2.95;;;;;;;17.43;71.21;97149.25;5005081;28;20046;-82
2021/06/04 04:33:55;;;;;;;5.82;3.05;;;;;;;17.41;69.21;97146.03;5004558;28;20072;-77
2021/06/04 04:36:25;;;;;;;5.45;3.05;;;;;;;17.36;68.66;97140.56;5005460;28;20061;-77
2021/06/04 04:38:54;;;;;;;5.78;3.20;;;;;;;17.30;68.58;97147.50;5005414;28;20050;-79
2021/06/04 04:41:21;;;;;;;4.28;3.22;;;;;;;17.24;68.53;97148.34;5004774;28;20054;-78
2021/06/04 04:43:51;;;;;;;4.22;2.88;;;;;;;17.18;68.52;97149.97;5003391;28;20058;-77
2021/06/04 04:46:20;;;;;;;4.85;3.35;;;;;;;17.13;69.11;97149.81;5003917;28;20058;-77
2021/06/04 04:48:47;;;;;;;3.95;2.80;;;;;;;17.14;69.50;97150.59;5003706;28;20050;-78
2021/06/04 04:51:16;;;;;;;5.00;3.40;;;;;;;17.12;68.83;97153.47;5003280;28;20431;-78
2021/06/04 04:53:44;;;;;;;3.38;3.08;;;;;;;17.14;69.78;97154.03;5003253;28;20062;-78
2021/06/04 04:56:14;;;;;;;7.05;3.65;;;;;;;17.16;69.02;97154.63;5003873;28;20464;-78
2021/06/04 04:58:41;;;;;;;5.63;3.83;;;;;;;17.16;69.00;97146.72;5003785;28;20069;-78
2021/06/04 05:01:10;;;;;;;3.70;3.35;;;;;;;17.16;69.00;97148.56;5003157;28;20047;-77
2021/06/04 05:03:38;;;;;;;4.50;3.40;;;;;;;17.14;69.15;97143.50;5002507;28;20060;-79
2021/06/04 05:06:07;;;;;;;4.57;3.60;;;;;;;17.14;69.16;97150.59;5003042;28;20049;-78
2021/06/04 05:08:34;;;;;;;4.63;3.47;;;;;;;17.14;69.09;97154.03;5003333;28;20090;-77
2021/06/04 05:11:02;;;;;;;5.07;3.45;;;;;;;17.13;69.61;97155.06;5003506;28;20065;-79
2021/06/04 05:13:31;;;;;;;4.47;3.85;;;;;;;17.15;69.07;97155.69;5002921;28;20141;-76
2021/06/04 05:15:59;;;;;;;5.30;3.83;;;;;;;17.17;68.99;97153.63;5003076;28;20060;-81
2021/06/04 05:18:26;;;;;;;3.58;3.28;;;;;;;17.18;68.82;97160.50;5010783;28;20085;-78
2021/06/04 05:20:53;;;;;;;5.82;3.38;;;;;;;17.20;68.50;97162.94;5014496;28;20048;-80
2021/06/04 05:23:21;;;;;;;4.47;3.53;;;;;;;17.21;68.50;97160.13;5008649;28;20061;-77
2021/06/04 05:25:50;;;;;;;7.13;3.60;;;;;;;17.23;68.53;97155.44;5003847;28;20069;-77
2021/06/04 05:28:20;;;;;;;6.88;3.97;;;;;;;17.29;69.42;97164.31;5002011;28;20146;-76
2021/06/04 05:30:51;;;;;;;4.07;3.25;;;;;;;17.33;68.43;97167.34;5002614;28;20089;-75
2021/06/04 05:33:22;;;;;;;4.70;4.00;;;;;;;17.35;69.10;97165.31;5003073;28;20050;-79
2021/06/04 05:35:49;;;;;;;6.65;4.22;;;;;;;17.40;68.69;97165.50;5001999;28;20054;-76
2021/06/04 05:38:17;;;;;;;5.95;3.47;;;;;;;17.45;70.89;97163.03;5002316;28;20054;-77
2021/06/04 05:40:47;;;;;;;7.53;4.82;;;;;;;17.48;68.76;97171.31;5002270;28;20061;-77
2021/06/04 05:43:19;;;;;;;6.15;4.70;;;;;;;17.51;68.03;97170.09;5002298;28;20051;-76
2021/06/04 05:45:48;;;;;;;5.82;4.00;;;;;;;17.55;68.08;97166.00;5002190;28;20051;-78
2021/06/04 05:48:16;;;;;;;5.72;4.43;;;;;;;17.62;71.17;97173.88;5002329;28;20318;-78
2021/06/04 05:50:47;;;;;;;4.55;4.15;;;;;;;17.69;70.15;97177.31;5001807;28;20496;-77
2021/06/04 05:53:17;;;;;;;4.45;3.65;;;;;;;17.73;69.71;97177.69;5001989;28;20047;-77
2021/06/04 05:55:44;;;;;;;4.32;3.92;;;;;;;17.77;70.55;97182.31;5001102;28;20061;-76
2021/06/04 05:58:14;;;;;;;5.45;4.30;;;;;;;17.82;72.28;97176.41;5002036;28;20058;-78
2021/06/04 06:00:44;;;;;;;5.07;3.75;;;;;;;17.83;69.33;97183.34;5001414;28;20058;-77
2021/06/04 06:03:16;;;;;;;4.43;3.88;;;;;;;17.83;67.84;97184.13;5001333;28;20054;-78
2021/06/04 06:05:43;;;;;;;7.68;5.05;;;;;;;17.87;68.49;97185.31;5000877;28;20054;-78
2021/06/04 06:08:11;;;;;;;7.53;4.40;;;;;;;17.91;68.70;97185.72;5001273;28;20050;-79
2021/06/04 06:10:38;;;;;;;5.60;3.97;;;;;;;17.93;67.87;97188.97;5001432;28;20053;-77
2021/06/04 06:13:05;;;;;;;5.38;4.10;;;;;;;17.96;68.41;97185.88;5001245;28;20054;-79
2021/06/04 06:15:33;;;;;;;5.60;3.70;;;;;;;17.99;67.73;97188.06;5001562;28;20444;-76
2021/06/04 06:18:00;;;;;;;4.32;3.22;;;;;;;18.03;66.91;97183.19;5001288;28;20047;-77
2021/06/04 06:20:31;;;;;;;4.78;4.18;;;;;;;18.08;69.25;97191.25;5001201;28;20050;-79
2021/06/04 06:22:58;;;;;;;6.95;4.47;;;;;;;18.11;67.34;97194.28;5001639;28;20046;-78
2021/06/04 06:25:30;;;;;;;4.60;3.33;;;;;;;18.16;67.41;97190.19;5002637;28;20054;-77
2021/06/04 06:27:58;;;;;;;5.07;3.03;;;;;;;18.21;67.78;97195.63;5001853;28;20459;-78
2021/06/04 06:30:28;;;;;;;5.13;3.03;;;;;;;18.27;67.15;97194.78;5002091;28;20058;-79
2021/06/04 06:32:55;;;;;;;3.95;3.60;;;;;;;18.36;70.34;97196.13;5000033;28;20046;-78
2021/06/04 06:35:28;;;;;;;6.05;3.53;;;;;;;18.39;68.03;97200.97;4999548;28;20058;-78
2021/06/04 06:37:56;;;;;;;4.20;3.80;;;;;;;18.45;69.51;97205.38;5000290;28;20056;-79
2021/06/04 06:40:23;;;;;;;3.83;3.35;;;;;;;18.50;67.84;97205.56;5000787;28;20047;-78
2021/06/04 06:42:50;;;;;;;5.43;3.95;;;;;;;18.55;68.99;97206.72;5000912;28;20330;-77
2021/06/04 06:45:19;;;;;;;3.85;3.45;;;;;;;18.61;67.51;97209.31;5001499;28;20082;-77
2021/06/04 06:47:46;;;;;;;4.47;3.63;;;;;;;18.68;70.48;97211.88;4999545;28;20054;-78
2021/06/04 06:50:13;;;;;;;5.70;3.92;;;;;;;18.75;68.41;97209.97;5000709;28;20054;-78
2021/06/04 06:52:40;;;;;;;4.18;3.42;;;;;;;18.77;65.15;97213.22;5000163;28;20050;-80
2021/06/04 06:55:10;;;;;;;3.58;3.00;;;;;;;18.82;65.24;97223.97;5000150;28;20914;-78
2021/06/04 06:57:37;;;;;;;4.80;3.50;;;;;;;18.89;66.99;97223.91;5001463;28;20054;-79
2021/06/04 07:00:08;;;;;;;4.35;3.45;;;;;;;18.96;64.51;97227.28;5001446;28;20057;-78
2021/06/04 07:02:35;;;;;;;3.58;3.28;;;;;;;19.02;67.91;97233.53;4999644;28;20055;-77
2021/06/04 07:05:03;;;;;;;4.28;3.28;;;;;;;19.06;66.22;97232.88;5000501;28;20057;-79
2021/06/04 07:07:30;;;;;;;5.63;3.45;;;;;;;19.12;64.49;97233.84;5001969;28;20077;-78
2021/06/04 07:09:57;;;;;;;5.75;3.22;;;;;;;19.15;64.10;97230.72;5004128;28;20050;-78
2021/06/04 07:12:25;;;;;;;6.53;3.47;;;;;;;19.21;62.93;97234.34;5004097;28;20051;-78
2021/06/04 07:14:55;;;;;;;3.50;3.20;;;;;;;19.25;63.67;97238.16;5004029;28;20078;-78
2021/06/04 07:17:23;;;;;;;7.13;3.03;;;;;;;19.30;63.64;97241.75;5003887;28;20046;-77
2021/06/04 07:19:50;;;;;;;3.90;3.10;;;;;;;19.38;63.38;97237.22;5025024;22;20054;-76
2021/06/04 07:22:17;;;;;;;5.65;3.03;;;;;;;19.45;63.23;97245.88;4996185;28;20062;-76
2021/06/04 07:24:45;;;;;;;4.63;3.20;;;;;;;19.51;64.51;97252.91;4995313;28;20061;-76
2021/06/04 07:27:12;;;;;;;6.18;4.03;;;;;;;19.59;63.30;97244.69;4997241;28;20428;-76
2021/06/04 07:29:41;;;;;;;6.30;4.00;;;;;;;19.66;62.68;97250.69;5001317;28;20065;-76
2021/06/04 07:32:09;;;;;;;6.25;4.32;;;;;;;19.72;62.33;97249.81;4977284;28;20058;-79
2021/06/04 07:34:36;;;;;;;5.40;4.53;;;;;;;19.80;62.13;97246.03;4975638;28;20117;-78
2021/06/04 07:37:04;;;;;;;5.75;4.00;;;;;;;19.88;62.89;97243.09;4976402;28;20050;-78
2021/06/04 07:39:33;;;;;;;5.32;4.43;;;;;;;19.96;62.84;97244.59;4976215;28;20062;-78
2021/06/04 07:42:02;;;;;;;5.30;3.65;;;;;;;20.04;62.75;97249.56;4975988;28;20046;-79
2021/06/04 07:44:29;;;;;;;7.25;4.13;;;;;;;20.13;62.14;97250.84;4975803;28;20058;-78
2021/06/04 07:46:58;;;;;;;4.13;3.55;;;;;;;20.23;62.32;97245.03;4976191;28;20104;-79
2021/06/04 07:49:26;;;;;;;4.55;3.83;;;;;;;20.35;60.96;97242.38;4976156;28;20043;-79
2021/06/04 07:51:56;;;;;;;4.30;3.33;;;;;;;20.46;60.18;97243.44;4975803;28;20050;-79
2021/06/04 07:54:25;;;;;;;5.47;3.97;;;;;;;20.54;59.51;97241.25;4975482;28;20440;-78
2021/06/04 07:56:52;;;;;;;6.30;3.33;;;;;;;20.66;59.27;97237.81;4975660;28;20055;-78
2021/06/04 07:59:20;;;;;;;9.25;3.80;;;;;;;20.78;59.47;97230.69;4975518;28;20523;-79
2021/06/04 08:01:49;;;;;;;9.32;3.90;;;;;;;20.89;59.17;97237.81;4975678;28;20059;-79
2021/06/04 08:04:17;;;;;;;5.10;3.70;;;;;;;20.99;57.89;97232.75;4975316;28;20109;-78
2021/06/04 08:06:44;;;;;;;3.20;3.00;;;;;;;21.09;58.34;97231.34;4975538;28;20122;-78
2021/06/04 08:09:14;;;;;;;4.45;3.28;;;;;;;21.18;58.17;97225.44;4975554;28;20077;-79
2021/06/04 08:11:46;;;;;;;3.53;2.88;;;;;;;21.28;57.52;97232.81;4975282;28;20046;-79
2021/06/04 08:14:16;;;;;;;4.95;2.75;;;;;;;21.37;57.69;97227.94;4974974;28;20157;-79
2021/06/04 08:16:45;;;;;;;4.68;3.20;;;;;;;21.47;58.11;97225.53;4975484;28;20062;-78
2021/06/04 08:19:18;;;;;;;7.57;3.88;;;;;;;21.55;57.27;97219.03;4974929;28;20046;-78
2021/06/04 08:21:50;;;;;;;6.22;3.25;;;;;;;21.62;57.32;97214.38;4974949;28;20046;-78
2021/06/04 08:24:20;;;;;;;;;;;;;;;21.69;57.63;97216.88;4975347;28;20134;-78
2021/06/04 08:26:48;;;;;;;4.00;2.90;;;;;;;21.76;57.02;97220.22;4975427;28;19926;-78
2021/06/04 08:29:16;;;;;;;4.32;3.60;;;;;;;21.82;57.16;97208.63;4975237;28;20042;-79
2021/06/04 08:31:44;;;;;;;4.57;3.35;;;;;;;21.89;56.72;97205.84;4975052;28;20051;-78
2021/06/04 08:34:12;;;;;;;4.35;2.70;;;;;;;21.96;56.96;97211.81;4974967;28;20046;-78
2021/06/04 08:36:42;;;;;;;5.85;2.90;;;;;;;22.05;56.56;97207.69;4975038;28;20046;-78
2021/06/04 08:39:15;;;;;;;2.95;2.65;;;;;;;22.15;56.01;97207.88;4974952;28;20520;-78
2021/06/04 08:41:46;;;;;;;6.97;3.15;;;;;;;22.24;55.18;97204.81;4974761;28;20058;-79
2021/06/04 08:44:33;;;;;;;3.38;3.08;;;;;;;22.33;54.63;97203.41;4974642;28;20513;-78
2021/06/04 08:47:04;;;;;;;6.03;3.47;;;;;;;22.42;55.31;97201.94;4974782;28;20105;-78
2021/06/04 08:49:47;;;;;;;3.70;2.95;;;;;;;22.53;55.39;97202.91;4975019;28;20047;-78
2021/06/04 08:52:20;;;;;;;4.70;2.40;;;;;;;22.62;53.93;97199.56;4974851;28;20066;-79
2021/06/04 08:55:03;;;;;;;4.90;2.40;;;;;;;22.73;53.92;97197.88;4974610;28;20414;-78
2021/06/04 08:57:49;;;;;;;3.80;2.50;;;;;;;22.82;53.75;97204.38;4975467;28;20074;-79
2021/06/04 09:00:20;;;;;;;7.00;2.88;;;;;;;22.89;53.18;97198.88;4974757;28;20050;-79
2021/06/04 09:02:50;;;;;;;3.45;2.80;;;;;;;22.98;53.17;97199.25;4974499;28;20057;-79
2021/06/04 09:05:22;;;;;;;2.95;2.50;;;;;;;23.05;53.17;97199.94;4974499;28;20535;-78
2021/06/04 09:07:51;;;;;;;3.35;2.67;;;;;;;23.13;52.88;97188.03;4974532;28;20073;-79
2021/06/04 09:10:29;;;;;;;5.75;2.80;;;;;;;23.21;52.47;97192.94;4973999;28;20055;-79
2021/06/04 09:13:01;;;;;;;7.38;3.25;;;;;;;23.30;52.48;97195.97;4974189;28;20073;-79
2021/06/04 09:15:32;;;;;;;5.22;2.35;;;;;;;23.38;52.09;97198.97;4974078;28;20493;-78
2021/06/04 09:18:05;;;;;;;2.88;2.45;;;;;;;23.48;52.72;97200.94;4974341;28;20129;-79
2021/06/04 09:20:41;;;;;;;2.42;2.22;;;;;;;23.57;51.77;97188.00;4973782;28;20050;-79
2021/06/04 09:23:10;;;;;;;3.30;2.33;;;;;;;23.65;52.18;97190.22;4974281;28;20050;-79
2021/06/04 09:25:40;;;;;;;4.18;2.83;;;;;;;23.69;51.23;97188.66;4974169;28;20050;-78
2021/06/04 09:28:22;;;;;;;7.50;2.83;;;;;;;23.74;51.60;97191.34;4974128;28;20050;-78
2021/06/04 09:30:50;;;;;;;3.17;2.35;;;;;;;23.79;51.61;97186.13;4973050;28;20047;-78
2021/06/04 09:33:26;;;;;;;5.03;2.53;;;;;;;23.89;51.33;97188.06;4973625;28;20461;-78
2021/06/04 09:36:03;;;;;;;7.75;2.70;;;;;;;23.98;51.13;97180.41;4974011;28;20254;-79
2021/06/04 09:38:35;;;;;;;6.45;2.80;;;;;;;24.10;51.97;97178.41;4974040;28;20055;-78
2021/06/04 09:41:17;;;;;;;4.10;2.40;;;;;;;24.19;51.39;97179.53;4973608;28;20497;-78
2021/06/04 09:43:47;;;;;;;6.70;2.88;;;;;;;24.29;50.84;97172.66;4973402;28;20058;-79
2021/06/04 09:46:26;;;;;;;2.70;2.50;;;;;;;24.38;50.79;97165.78;4973806;28;20051;-78
2021/06/04 09:48:56;;;;;;;4.75;2.35;;;;;;;24.44;52.22;97165.56;4973837;28;20058;-79
2021/06/04 09:51:26;;;;;;;3.22;2.92;;;;;;;24.51;50.23;97157.41;4973514;28;20597;-78
2021/06/04 09:53:55;;;;;;;3.97;2.78;;;;;;;24.59;51.03;97153.44;4973524;28;20058;-79
2021/06/04 09:56:30;;;;;;;3.58;2.13;;;;;;;24.65;50.95;97145.19;4973864;28;20047;-76
2021/06/04 09:59:00;;;;;;;4.90;2.42;;;;;;;24.72;50.09;97152.16;4974322;28;20057;-76
2021/06/04 10:01:44;;;;;;;3.83;2.10;;;;;;;24.76;51.17;97154.06;4973836;28;20051;-76
2021/06/04 10:04:16;;;;;;;5.20;2.42;;;;;;;24.77;49.26;97149.53;4973618;28;20047;-76
2021/06/04 10:06:47;;;;;;;2.75;2.20;;;;;;;24.78;50.21;97156.47;4974014;28;20089;-76
2021/06/04 10:09:24;;;;;;;8.25;2.72;;;;;;;24.79;49.69;97168.75;4974035;28;20058;-75
2021/06/04 10:11:57;;;;;;;3.38;2.22;;;;;;;24.78;48.00;97167.16;4973573;28;20043;-76
2021/06/04 10:14:35;;;;;;;4.95;2.75;;;;;;;24.77;50.33;97168.19;4973382;28;20057;-76
2021/06/04 10:17:26;;;;;;;6.25;2.90;;;;;;;24.76;50.62;97164.72;4974077;28;20051;-76
2021/06/04 10:19:53;;;;;;;5.65;2.45;;;;;;;24.72;49.05;97157.50;4973709;28;20101;-76
2021/06/04 10:22:34;;;;;;;5.97;2.40;;;;;;;24.68;49.70;97141.19;4973528;28;20058;-76
2021/06/04 10:25:22;;;;;;;2.65;2.35;;;;;;;24.67;49.82;97148.41;4973603;28;20078;-76
2021/06/04 10:27:52;;;;;;;3.67;2.20;;;;;;;24.65;51.02;97155.88;4973865;28;20051;-76
2021/06/04 10:30:23;;;;;;;2.28;2.08;;;;;;;24.65;51.54;97173.75;4973491;28;20497;-76
2021/06/04 10:33:01;;;;;;;5.30;2.00;;;;;;;24.62;49.00;97171.56;4973660;28;20057;-77
2021/06/04 10:35:35;;;;;;;1.58;1.25;;;;;;;24.56;48.72;97176.09;4973725;28;20059;-76
2021/06/04 10:38:07;;;;;;;3.50;1.52;;;;;;;24.50;48.82;97174.44;4974494;28;20420;-76
2021/06/04 10:40:38;;;;;;;3.28;1.50;;;;;;;24.44;47.91;97172.78;4974543;28;20058;-76
2021/06/04 10:43:53;;;;;;;7.47;1.35;;;;;;;24.40;47.42;97187.66;4978268;28;20058;-76
2021/06/04 10:46:24;;;;;;;1.42;0.93;;;;;;;24.33;46.45;97197.75;4977791;28;20058;-76
2021/06/04 10:49:02;;;;;;;3.05;1.40;;;;;;;24.25;44.89;97202.50;4977705;28;20055;-76
2021/06/04 10:51:37;;;;;;;2.22;1.13;;;;;;;24.21;45.51;97195.28;4977370;28;20050;-76
2021/06/04 10:54:20;;;;;;;2.17;1.42;;;;;;;24.12;45.58;97197.59;4977005;28;20054;-76
2021/06/04 10:56:55;;;;;;;3.53;1.27;;;;;;;24.06;47.44;97203.94;4977345;28;20050;-76
2021/06/04 10:59:36;;;;;;;4.13;1.65;;;;;;;24.00;46.81;97194.28;4977274;28;20061;-76
2021/06/04 11:02:16;;;;;;;1.88;1.55;;;;;;;23.92;46.95;97197.41;4977591;28;20050;-76
2021/06/04 11:05:01;;;;;;;4.55;2.05;;;;;;;23.81;48.48;97202.66;4988416;28;20050;-76
2021/06/04 11:07:32;;;;;;;5.18;1.95;;;;;;;23.72;49.58;97203.31;4992708;28;20078;-76
2021/06/04 11:10:09;;;;;;;2.85;1.70;;;;;;;23.65;52.93;97227.50;4994405;28;20090;-76
2021/06/04 11:12:55;;;;;;;8.90;2.58;;;;;;;23.58;53.78;97229.56;4977072;28;20047;-76
2021/06/04 11:15:30;;;;;;;11.55;3.95;;;;;;;23.41;56.08;97235.75;4977177;28;20046;-76
2021/06/04 11:18:02;;;;;;;10.65;3.20;;;;;;;23.15;59.49;97239.16;4977094;28;20062;-76
2021/06/04 11:20:36;;;;;;;7.70;3.60;;;;;;;22.88;63.22;97247.81;4977037;28;20054;-76
2021/06/04 11:23:09;;;;;;;7.47;3.08;;;;;;;22.62;64.78;97239.47;4977524;28;20043;-79
2021/06/04 11:25:50;;;;;;;8.63;3.33;;;;;;;22.30;62.44;97241.06;4976172;28;20504;-78
2021/06/04 11:28:26;;;;;;;4.45;2.15;;;;;;;22.00;61.60;97258.91;4976498;28;20109;-79
2021/06/04 11:30:57;;;;;;;11.52;3.53;;;;;;;21.79;63.18;97333.91;4976217;28;20062;-79
2021/06/04 11:33:27;;;;;;;9.38;3.13;;;;;;;21.47;62.14;97325.56;4976412;28;20054;-79
2021/06/04 11:36:00;;;;;;;8.63;2.65;;;;;;;21.05;60.81;97273.44;4977102;28;20082;-79
2021/06/04 11:38:32;;;;;;;4.50;2.00;;;;;;;20.62;60.44;97258.72;4976645;28;20061;-79
2021/06/04 11:41:10;;;;;;;4.07;1.70;;;;;;;20.29;61.49;97225.56;4975875;28;20047;-79
2021/06/04 11:43:41;;;;;;;3.15;1.90;;;;;;;20.09;61.47;97217.13;4975606;28;20073;-79
2021/06/04 11:46:16;;;;;;;4.45;2.15;;;;;;;19.93;61.34;97221.22;4975967;28;20054;-78
2021/06/04 11:48:57;;;;;;;6.25;2.58;;;;;;;19.80;65.58;97227.50;4975749;28;20054;-78
2021/06/04 11:51:40;;;;;;;5.15;2.00;;;;;;;19.71;64.29;97221.72;4976141;28;20441;-79
2021/06/04 11:54:21;;;;;;;4.43;1.95;;;;;;;19.69;67.60;97213.19;4974776;28;20046;-79
2021/06/04 11:56:54;;;;;;;4.72;2.90;;;;;;;19.72;72.18;97218.06;4975752;28;20567;-79